sensor_id;sensor_type;location;lat;lon;timestamp;pressure;altitude;pressure_sealevel;temperature
19196;BMP280;9730;48.926;11.376;2023-06-04T00:02:27;97336.94;;;11.33
19196;BMP280;9730;48.926;11.376;2023-06-04T00:04:55;97366.84;;;11.57
19196;BMP280;9730;48.926;11.376;2023-06-04T00:07:23;97353.34;;;11.73
19196;BMP280;9730;48.926;11.376;2023-06-04T00:09:52;97340.72;;;11.41
19196;BMP280;9730;48.926;11.376;2023-06-04T00:12:19;97312.00;;;11.12
19196;BMP280;9730;48.926;11.376;2023-06-04T00:14:47;97336.56;;;11.08
19196;BMP280;9730;48.926;11.376;2023-06-04T00:17:15;97341.50;;;11.26
19196;BMP280;9730;48.926;11.376;2023-06-04T00:19:44;97350.91;;;11.08
19196;BMP280;9730;48.926;11.376;2023-06-04T00:22:12;97345.59;;;11.29
19196;BMP280;9730;48.926;11.376;2023-06-04T00:24:40;97344.31;;;11.37
19196;BMP280;9730;48.926;11.376;2023-06-04T00:27:08;97362.28;;;11.48
19196;BMP280;9730;48.926;11.376;2023-06-04T00:29:36;97358.69;;;11.52
19196;BMP280;9730;48.926;11.376;2023-06-04T00:32:04;97362.59;;;11.58
19196;BMP280;9730;48.926;11.376;2023-06-04T00:34:32;97348.69;;;11.34
19196;BMP280;9730;48.926;11.376;2023-06-04T00:37:01;97319.38;;;10.99
19196;BMP280;9730;48.926;11.376;2023-06-04T00:39:29;97330.72;;;11.23
19196;BMP280;9730;48.926;11.376;2023-06-04T00:41:57;97375.88;;;11.29
19196;BMP280;9730;48.926;11.376;2023-06-04T00:44:25;97377.41;;;11.31
19196;BMP280;9730;48.926;11.376;2023-06-04T00:46:53;97354.06;;;11.28
19196;BMP280;9730;48.926;11.376;2023-06-04T00:49:21;97336.84;;;11.34
19196;BMP280;9730;48.926;11.376;2023-06-04T00:51:49;97336.44;;;10.94
19196;BMP280;9730;48.926;11.376;2023-06-04T00:54:20;97350.16;;;11.06
19196;BMP280;9730;48.926;11.376;2023-06-04T00:56:49;97363.84;;;10.85
19196;BMP280;9730;48.926;11.376;2023-06-04T00:59:16;97372.88;;;10.89
19196;BMP280;9730;48.926;11.376;2023-06-04T01:01:48;97365.22;;;10.90
19196;BMP280;9730;48.926;11.376;2023-06-04T01:04:21;97354.34;;;10.90
19196;BMP280;9730;48.926;11.376;2023-06-04T01:06:53;97347.78;;;11.03
19196;BMP280;9730;48.926;11.376;2023-06-04T01:09:26;97355.22;;;11.06
19196;BMP280;9730;48.926;11.376;2023-06-04T01:11:54;97334.84;;;10.59
19196;BMP280;9730;48.926;11.376;2023-06-04T01:14:24;97350.31;;;10.86
19196;BMP280;9730;48.926;11.376;2023-06-04T01:16:56;97339.16;;;10.58
19196;BMP280;9730;48.926;11.376;2023-06-04T01:19:56;97345.38;;;10.34
19196;BMP280;9730;48.926;11.376;2023-06-04T01:22:33;97362.63;;;10.24
19196;BMP280;9730;48.926;11.376;2023-06-04T01:25:09;97376.91;;;10.59
19196;BMP280;9730;48.926;11.376;2023-06-04T01:27:47;97393.94;;;10.54
19196;BMP280;9730;48.926;11.376;2023-06-04T01:30:17;97391.44;;;10.54
19196;BMP280;9730;48.926;11.376;2023-06-04T01:32:45;97398.13;;;10.55
19196;BMP280;9730;48.926;11.376;2023-06-04T01:35:14;97383.88;;;10.54
19196;BMP280;9730;48.926;11.376;2023-06-04T01:37:42;97370.66;;;9.97
19196;BMP280;9730;48.926;11.376;2023-06-04T01:40:12;97363.34;;;9.91
19196;BMP280;9730;48.926;11.376;2023-06-04T01:42:40;97358.44;;;10.07
19196;BMP280;9730;48.926;11.376;2023-06-04T01:45:09;97342.28;;;9.92
19196;BMP280;9730;48.926;11.376;2023-06-04T01:47:37;97348.97;;;9.75
19196;BMP280;9730;48.926;11.376;2023-06-04T01:50:06;97364.38;;;9.87
19196;BMP280;9730;48.926;11.376;2023-06-04T01:52:35;97392.88;;;10.06
19196;BMP280;9730;48.926;11.376;2023-06-04T01:55:04;97394.59;;;10.06
19196;BMP280;9730;48.926;11.376;2023-06-04T01:57:33;97401.69;;;10.16
19196;BMP280;9730;48.926;11.376;2023-06-04T02:00:02;97406.66;;;10.17
19196;BMP280;9730;48.926;11.376;2023-06-04T02:02:38;97393.75;;;10.23
19196;BMP280;9730;48.926;11.376;2023-06-04T02:05:08;97389.34;;;10.10
19196;BMP280;9730;48.926;11.376;2023-06-04T02:07:37;97395.00;;;9.60
19196;BMP280;9730;48.926;11.376;2023-06-04T02:10:06;97406.22;;;9.53
19196;BMP280;9730;48.926;11.376;2023-06-04T02:12:36;97395.13;;;9.75
19196;BMP280;9730;48.926;11.376;2023-06-04T02:15:05;97398.00;;;10.05
19196;BMP280;9730;48.926;11.376;2023-06-04T02:17:33;97396.72;;;9.96
19196;BMP280;9730;48.926;11.376;2023-06-04T02:20:09;97394.88;;;10.00
19196;BMP280;9730;48.926;11.376;2023-06-04T02:22:37;97393.66;;;10.08
19196;BMP280;9730;48.926;11.376;2023-06-04T02:25:06;97374.06;;;10.13
19196;BMP280;9730;48.926;11.376;2023-06-04T02:27:37;97372.66;;;10.07
19196;BMP280;9730;48.926;11.376;2023-06-04T02:30:06;97382.66;;;9.91
19196;BMP280;9730;48.926;11.376;2023-06-04T02:32:34;97360.88;;;9.53
19196;BMP280;9730;48.926;11.376;2023-06-04T02:35:02;97367.38;;;9.58
19196;BMP280;9730;48.926;11.376;2023-06-04T02:37:30;97379.94;;;9.77
19196;BMP280;9730;48.926;11.376;2023-06-04T02:39:58;97370.34;;;9.48
19196;BMP280;9730;48.926;11.376;2023-06-04T02:42:26;97393.34;;;9.41
19196;BMP280;9730;48.926;11.376;2023-06-04T02:44:55;97400.31;;;9.54
19196;BMP280;9730;48.926;11.376;2023-06-04T02:47:23;97390.69;;;9.62
19196;BMP280;9730;48.926;11.376;2023-06-04T02:49:51;97409.47;;;9.55
19196;BMP280;9730;48.926;11.376;2023-06-04T02:52:18;97411.59;;;9.64
19196;BMP280;9730;48.926;11.376;2023-06-04T02:54:49;97414.47;;;9.37
19196;BMP280;9730;48.926;11.376;2023-06-04T02:57:17;97411.69;;;9.43
19196;BMP280;9730;48.926;11.376;2023-06-04T02:59:44;97404.75;;;9.29
19196;BMP280;9730;48.926;11.376;2023-06-04T03:02:14;97399.28;;;8.80
19196;BMP280;9730;48.926;11.376;2023-06-04T03:04:42;97414.31;;;8.82
19196;BMP280;9730;48.926;11.376;2023-06-04T03:07:11;97407.75;;;8.58
19196;BMP280;9730;48.926;11.376;2023-06-04T03:09:40;97417.53;;;8.85
19196;BMP280;9730;48.926;11.376;2023-06-04T03:12:08;97420.41;;;9.16
19196;BMP280;9730;48.926;11.376;2023-06-04T03:14:36;97431.66;;;9.27
19196;BMP280;9730;48.926;11.376;2023-06-04T03:17:05;97424.81;;;9.31
19196;BMP280;9730;48.926;11.376;2023-06-04T03:19:39;97429.03;;;9.10
19196;BMP280;9730;48.926;11.376;2023-06-04T03:22:09;97428.47;;;8.84
19196;BMP280;9730;48.926;11.376;2023-06-04T03:24:38;97432.81;;;9.00
19196;BMP280;9730;48.926;11.376;2023-06-04T03:27:08;97443.47;;;9.07
19196;BMP280;9730;48.926;11.376;2023-06-04T03:29:39;97437.78;;;9.02
19196;BMP280;9730;48.926;11.376;2023-06-04T03:32:08;97440.69;;;9.13
19196;BMP280;9730;48.926;11.376;2023-06-04T03:34:38;97441.94;;;9.23
19196;BMP280;9730;48.926;11.376;2023-06-04T03:37:07;97420.72;;;9.28
19196;BMP280;9730;48.926;11.376;2023-06-04T03:39:35;97414.41;;;9.38
19196;BMP280;9730;48.926;11.376;2023-06-04T03:42:05;97413.03;;;9.51
19196;BMP280;9730;48.926;11.376;2023-06-04T03:44:33;97402.59;;;9.40
19196;BMP280;9730;48.926;11.376;2023-06-04T03:47:02;97395.50;;;9.48
19196;BMP280;9730;48.926;11.376;2023-06-04T03:49:30;97424.28;;;9.43
19196;BMP280;9730;48.926;11.376;2023-06-04T03:52:00;97428.41;;;9.25
19196;BMP280;9730;48.926;11.376;2023-06-04T03:54:28;97438.16;;;9.13
19196;BMP280;9730;48.926;11.376;2023-06-04T03:56:57;97437.53;;;8.88
19196;BMP280;9730;48.926;11.376;2023-06-04T03:59:25;97447.06;;;8.60
19196;BMP280;9730;48.926;11.376;2023-06-04T04:01:53;97454.16;;;8.71
19196;BMP280;9730;48.926;11.376;2023-06-04T04:04:21;97447.41;;;8.93
19196;BMP280;9730;48.926;11.376;2023-06-04T04:06:49;97459.63;;;9.01
19196;BMP280;9730;48.926;11.376;2023-06-04T04:09:19;97449.88;;;9.14
19196;BMP280;9730;48.926;11.376;2023-06-04T04:11:46;97444.06;;;9.32
19196;BMP280;9730;48.926;11.376;2023-06-04T04:14:14;97432.81;;;9.40
19196;BMP280;9730;48.926;11.376;2023-06-04T04:16:42;97437.13;;;9.37
19196;BMP280;9730;48.926;11.376;2023-06-04T04:19:10;97433.53;;;9.42
19196;BMP280;9730;48.926;11.376;2023-06-04T04:21:38;97446.94;;;9.43
19196;BMP280;9730;48.926;11.376;2023-06-04T04:24:06;97435.84;;;9.47
19196;BMP280;9730;48.926;11.376;2023-06-04T04:26:36;97427.94;;;9.55
19196;BMP280;9730;48.926;11.376;2023-06-04T04:29:04;97440.66;;;9.52
19196;BMP280;9730;48.926;11.376;2023-06-04T04:31:35;97434.19;;;9.47
19196;BMP280;9730;48.926;11.376;2023-06-04T04:34:02;97437.09;;;9.56
19196;BMP280;9730;48.926;11.376;2023-06-04T04:36:39;97437.34;;;9.70
19196;BMP280;9730;48.926;11.376;2023-06-04T04:39:07;97418.38;;;9.62
19196;BMP280;9730;48.926;11.376;2023-06-04T04:41:36;97420.88;;;9.82
19196;BMP280;9730;48.926;11.376;2023-06-04T04:44:05;97418.84;;;9.90
19196;BMP280;9730;48.926;11.376;2023-06-04T04:46:33;97410.06;;;10.16
19196;BMP280;9730;48.926;11.376;2023-06-04T04:49:00;97399.25;;;10.14
19196;BMP280;9730;48.926;11.376;2023-06-04T04:51:28;97401.47;;;10.20
19196;BMP280;9730;48.926;11.376;2023-06-04T04:53:57;97395.84;;;10.32
19196;BMP280;9730;48.926;11.376;2023-06-04T04:56:27;97393.41;;;10.31
19196;BMP280;9730;48.926;11.376;2023-06-04T04:58:57;97399.94;;;10.35
19196;BMP280;9730;48.926;11.376;2023-06-04T05:01:24;97400.25;;;10.46
19196;BMP280;9730;48.926;11.376;2023-06-04T05:03:52;97419.75;;;10.42
19196;BMP280;9730;48.926;11.376;2023-06-04T05:06:21;97417.81;;;10.47
19196;BMP280;9730;48.926;11.376;2023-06-04T05:08:49;97424.97;;;10.56
19196;BMP280;9730;48.926;11.376;2023-06-04T05:11:17;97432.16;;;10.63
19196;BMP280;9730;48.926;11.376;2023-06-04T05:13:46;97440.44;;;10.67
19196;BMP280;9730;48.926;11.376;2023-06-04T05:16:16;97438.41;;;10.73
19196;BMP280;9730;48.926;11.376;2023-06-04T05:18:47;97434.03;;;10.77
19196;BMP280;9730;48.926;11.376;2023-06-04T05:21:20;97420.16;;;10.85
19196;BMP280;9730;48.926;11.376;2023-06-04T05:23:55;97432.25;;;10.96
19196;BMP280;9730;48.926;11.376;2023-06-04T05:26:25;97433.75;;;11.00
19196;BMP280;9730;48.926;11.376;2023-06-04T05:28:57;97426.09;;;11.01
19196;BMP280;9730;48.926;11.376;2023-06-04T05:31:30;97435.16;;;11.05
19196;BMP280;9730;48.926;11.376;2023-06-04T05:33:59;97434.47;;;11.18
19196;BMP280;9730;48.926;11.376;2023-06-04T05:36:30;97425.47;;;11.30
19196;BMP280;9730;48.926;11.376;2023-06-04T05:39:01;97440.66;;;11.45
19196;BMP280;9730;48.926;11.376;2023-06-04T05:41:35;97405.34;;;11.77
19196;BMP280;9730;48.926;11.376;2023-06-04T05:44:04;97392.53;;;11.96
19196;BMP280;9730;48.926;11.376;2023-06-04T05:46:34;97388.47;;;11.93
19196;BMP280;9730;48.926;11.376;2023-06-04T05:49:02;97382.09;;;12.32
19196;BMP280;9730;48.926;11.376;2023-06-04T05:51:30;97365.50;;;13.98
19196;BMP280;9730;48.926;11.376;2023-06-04T05:53:58;97306.25;;;15.50
19196;BMP280;9730;48.926;11.376;2023-06-04T05:56:26;97261.81;;;16.49
19196;BMP280;9730;48.926;11.376;2023-06-04T05:58:55;97204.53;;;18.26
19196;BMP280;9730;48.926;11.376;2023-06-04T06:01:24;97149.00;;;18.18
19196;BMP280;9730;48.926;11.376;2023-06-04T06:03:54;97141.19;;;19.48
19196;BMP280;9730;48.926;11.376;2023-06-04T06:06:24;97129.63;;;19.63
19196;BMP280;9730;48.926;11.376;2023-06-04T06:08:52;97087.56;;;20.68
19196;BMP280;9730;48.926;11.376;2023-06-04T06:11:20;97066.38;;;20.75
19196;BMP280;9730;48.926;11.376;2023-06-04T06:13:48;97104.44;;;19.87
19196;BMP280;9730;48.926;11.376;2023-06-04T06:16:16;97087.81;;;20.65
19196;BMP280;9730;48.926;11.376;2023-06-04T06:18:44;97083.28;;;21.56
19196;BMP280;9730;48.926;11.376;2023-06-04T06:21:13;97091.78;;;21.57
19196;BMP280;9730;48.926;11.376;2023-06-04T06:23:41;97048.97;;;22.00
19196;BMP280;9730;48.926;11.376;2023-06-04T06:26:09;97086.03;;;22.23
19196;BMP280;9730;48.926;11.376;2023-06-04T06:28:43;97037.69;;;22.77
19196;BMP280;9730;48.926;11.376;2023-06-04T06:31:11;97066.16;;;22.83
19196;BMP280;9730;48.926;11.376;2023-06-04T06:33:39;97109.09;;;21.28
19196;BMP280;9730;48.926;11.376;2023-06-04T06:36:07;97089.34;;;22.66
19196;BMP280;9730;48.926;11.376;2023-06-04T06:38:36;97146.16;;;21.16
19196;BMP280;9730;48.926;11.376;2023-06-04T06:41:04;97165.63;;;21.09
19196;BMP280;9730;48.926;11.376;2023-06-04T06:43:32;97185.41;;;20.90
19196;BMP280;9730;48.926;11.376;2023-06-04T06:46:00;97176.41;;;21.66
19196;BMP280;9730;48.926;11.376;2023-06-04T06:48:27;97091.44;;;24.40
19196;BMP280;9730;48.926;11.376;2023-06-04T06:50:55;97126.91;;;23.17
19196;BMP280;9730;48.926;11.376;2023-06-04T06:53:23;97085.00;;;23.41
19196;BMP280;9730;48.926;11.376;2023-06-04T06:55:52;97094.38;;;23.89
19196;BMP280;9730;48.926;11.376;2023-06-04T06:58:19;97053.81;;;25.37
19196;BMP280;9730;48.926;11.376;2023-06-04T07:00:47;97035.28;;;26.15
19196;BMP280;9730;48.926;11.376;2023-06-04T07:03:15;97057.47;;;24.28
19196;BMP280;9730;48.926;11.376;2023-06-04T07:05:43;97107.22;;;24.91
19196;BMP280;9730;48.926;11.376;2023-06-04T07:08:11;97049.78;;;26.16
19196;BMP280;9730;48.926;11.376;2023-06-04T07:10:38;97030.03;;;27.72
19196;BMP280;9730;48.926;11.376;2023-06-04T07:13:07;97021.34;;;26.38
19196;BMP280;9730;48.926;11.376;2023-06-04T07:15:35;96988.03;;;25.92
19196;BMP280;9730;48.926;11.376;2023-06-04T07:18:03;97051.31;;;25.74
19196;BMP280;9730;48.926;11.376;2023-06-04T07:20:30;97073.72;;;25.73
19196;BMP280;9730;48.926;11.376;2023-06-04T07:22:58;97070.06;;;24.07
19196;BMP280;9730;48.926;11.376;2023-06-04T07:25:26;97021.28;;;25.73
19196;BMP280;9730;48.926;11.376;2023-06-04T07:27:53;96996.44;;;25.50
19196;BMP280;9730;48.926;11.376;2023-06-04T07:30:25;97041.19;;;26.38
19196;BMP280;9730;48.926;11.376;2023-06-04T07:32:53;96990.38;;;27.50
19196;BMP280;9730;48.926;11.376;2023-06-04T07:35:21;96934.53;;;27.41
19196;BMP280;9730;48.926;11.376;2023-06-04T07:37:49;96916.84;;;27.45
19196;BMP280;9730;48.926;11.376;2023-06-04T07:40:17;96957.09;;;26.56
19196;BMP280;9730;48.926;11.376;2023-06-04T07:42:45;96976.97;;;25.84
19196;BMP280;9730;48.926;11.376;2023-06-04T07:45:14;96995.47;;;25.73
19196;BMP280;9730;48.926;11.376;2023-06-04T07:47:43;96976.25;;;25.75
19196;BMP280;9730;48.926;11.376;2023-06-04T07:50:11;96946.44;;;26.45
19196;BMP280;9730;48.926;11.376;2023-06-04T07:52:39;96978.03;;;27.52
19196;BMP280;9730;48.926;11.376;2023-06-04T07:55:07;96950.88;;;27.21
19196;BMP280;9730;48.926;11.376;2023-06-04T07:57:36;96885.53;;;29.46
19196;BMP280;9730;48.926;11.376;2023-06-04T08:00:05;96911.13;;;28.57
19196;BMP280;9730;48.926;11.376;2023-06-04T08:02:37;96870.13;;;29.83
19196;BMP280;9730;48.926;11.376;2023-06-04T08:05:06;96885.66;;;30.59
19196;BMP280;9730;48.926;11.376;2023-06-04T08:07:34;96874.38;;;29.39
19196;BMP280;9730;48.926;11.376;2023-06-04T08:10:02;96940.19;;;28.06
19196;BMP280;9730;48.926;11.376;2023-06-04T08:12:30;96888.00;;;27.75
19196;BMP280;9730;48.926;11.376;2023-06-04T08:14:58;96916.16;;;27.85
19196;BMP280;9730;48.926;11.376;2023-06-04T08:17:25;96878.47;;;28.16
19196;BMP280;9730;48.926;11.376;2023-06-04T08:19:53;96896.69;;;28.95
19196;BMP280;9730;48.926;11.376;2023-06-04T08:22:22;96875.09;;;30.54
19196;BMP280;9730;48.926;11.376;2023-06-04T08:24:50;96870.72;;;29.91
19196;BMP280;9730;48.926;11.376;2023-06-04T08:27:17;96864.59;;;30.23
19196;BMP280;9730;48.926;11.376;2023-06-04T08:29:45;96832.91;;;30.82
19196;BMP280;9730;48.926;11.376;2023-06-04T08:32:13;96841.06;;;30.92
19196;BMP280;9730;48.926;11.376;2023-06-04T08:34:41;96839.38;;;30.30
19196;BMP280;9730;48.926;11.376;2023-06-04T08:37:08;96884.97;;;27.72
19196;BMP280;9730;48.926;11.376;2023-06-04T08:39:38;96864.06;;;28.60
19196;BMP280;9730;48.926;11.376;2023-06-04T08:42:06;96897.66;;;27.94
19196;BMP280;9730;48.926;11.376;2023-06-04T08:44:36;96889.22;;;28.13
19196;BMP280;9730;48.926;11.376;2023-06-04T08:47:05;96882.78;;;30.29
19196;BMP280;9730;48.926;11.376;2023-06-04T08:49:34;96864.09;;;30.52
19196;BMP280;9730;48.926;11.376;2023-06-04T08:52:04;96818.69;;;31.93
19196;BMP280;9730;48.926;11.376;2023-06-04T08:54:32;96829.28;;;32.75
19196;BMP280;9730;48.926;11.376;2023-06-04T08:57:02;96856.38;;;29.05
19196;BMP280;9730;48.926;11.376;2023-06-04T08:59:30;96898.59;;;27.32
19196;BMP280;9730;48.926;11.376;2023-06-04T09:01:58;96941.22;;;28.45
19196;BMP280;9730;48.926;11.376;2023-06-04T09:04:26;96897.19;;;30.25
19196;BMP280;9730;48.926;11.376;2023-06-04T09:06:55;96889.97;;;31.63
19196;BMP280;9730;48.926;11.376;2023-06-04T09:09:23;96815.91;;;33.57
19196;BMP280;9730;48.926;11.376;2023-06-04T09:11:56;96794.66;;;32.68
19196;BMP280;9730;48.926;11.376;2023-06-04T09:14:25;96805.78;;;33.38
19196;BMP280;9730;48.926;11.376;2023-06-04T09:16:55;96845.16;;;30.75
19196;BMP280;9730;48.926;11.376;2023-06-04T09:19:25;96855.13;;;29.91
19196;BMP280;9730;48.926;11.376;2023-06-04T09:21:54;96881.88;;;30.55
19196;BMP280;9730;48.926;11.376;2023-06-04T09:24:23;96853.06;;;30.12
19196;BMP280;9730;48.926;11.376;2023-06-04T09:26:51;96905.94;;;29.49
19196;BMP280;9730;48.926;11.376;2023-06-04T09:29:19;96881.72;;;29.93
19196;BMP280;9730;48.926;11.376;2023-06-04T09:31:57;96842.25;;;32.52
19196;BMP280;9730;48.926;11.376;2023-06-04T09:34:27;96801.69;;;32.38
19196;BMP280;9730;48.926;11.376;2023-06-04T09:36:55;96798.84;;;32.39
19196;BMP280;9730;48.926;11.376;2023-06-04T09:39:23;96847.38;;;30.72
19196;BMP280;9730;48.926;11.376;2023-06-04T09:41:57;96854.41;;;31.93
19196;BMP280;9730;48.926;11.376;2023-06-04T09:44:26;96854.94;;;30.80
19196;BMP280;9730;48.926;11.376;2023-06-04T09:46:56;96876.44;;;30.19
19196;BMP280;9730;48.926;11.376;2023-06-04T09:49:24;96829.44;;;30.95
19196;BMP280;9730;48.926;11.376;2023-06-04T09:51:52;96818.50;;;30.06
19196;BMP280;9730;48.926;11.376;2023-06-04T09:54:20;96816.06;;;31.75
19196;BMP280;9730;48.926;11.376;2023-06-04T09:56:47;96798.84;;;31.57
19196;BMP280;9730;48.926;11.376;2023-06-04T09:59:16;96785.34;;;32.60
19196;BMP280;9730;48.926;11.376;2023-06-04T10:01:44;96797.22;;;33.88
19196;BMP280;9730;48.926;11.376;2023-06-04T10:04:15;96802.34;;;32.04
19196;BMP280;9730;48.926;11.376;2023-06-04T10:06:43;96783.53;;;32.72
19196;BMP280;9730;48.926;11.376;2023-06-04T10:09:13;96818.41;;;31.66
19196;BMP280;9730;48.926;11.376;2023-06-04T10:11:44;96823.03;;;29.15
19196;BMP280;9730;48.926;11.376;2023-06-04T10:14:20;96903.97;;;27.10
19196;BMP280;9730;48.926;11.376;2023-06-04T10:16:49;96926.97;;;28.22
19196;BMP280;9730;48.926;11.376;2023-06-04T10:19:20;96904.34;;;28.56
19196;BMP280;9730;48.926;11.376;2023-06-04T10:21:48;96927.41;;;28.32
19196;BMP280;9730;48.926;11.376;2023-06-04T10:24:15;96914.69;;;30.06
19196;BMP280;9730;48.926;11.376;2023-06-04T10:26:43;96913.22;;;30.22
19196;BMP280;9730;48.926;11.376;2023-06-04T10:29:12;96896.72;;;29.59
19196;BMP280;9730;48.926;11.376;2023-06-04T10:31:40;96917.53;;;29.85
19196;BMP280;9730;48.926;11.376;2023-06-04T10:34:08;96864.91;;;32.69
19196;BMP280;9730;48.926;11.376;2023-06-04T10:36:44;96859.66;;;31.69
19196;BMP280;9730;48.926;11.376;2023-06-04T10:39:12;96865.78;;;30.40
19196;BMP280;9730;48.926;11.376;2023-06-04T10:41:40;96863.66;;;28.56
19196;BMP280;9730;48.926;11.376;2023-06-04T10:44:07;96899.03;;;28.24
19196;BMP280;9730;48.926;11.376;2023-06-04T10:46:39;96926.19;;;27.19
19196;BMP280;9730;48.926;11.376;2023-06-04T10:49:09;96931.66;;;27.30
19196;BMP280;9730;48.926;11.376;2023-06-04T10:51:37;96983.28;;;25.67
19196;BMP280;9730;48.926;11.376;2023-06-04T10:54:06;96978.50;;;27.14
19196;BMP280;9730;48.926;11.376;2023-06-04T10:56:35;96947.84;;;28.54
19196;BMP280;9730;48.926;11.376;2023-06-04T10:59:13;96892.28;;;29.98
19196;BMP280;9730;48.926;11.376;2023-06-04T11:01:41;96891.00;;;30.26
19196;BMP280;9730;48.926;11.376;2023-06-04T11:04:18;96888.53;;;29.88
19196;BMP280;9730;48.926;11.376;2023-06-04T11:06:46;96900.16;;;30.42
19196;BMP280;9730;48.926;11.376;2023-06-04T11:09:16;96920.50;;;29.75
19196;BMP280;9730;48.926;11.376;2023-06-04T11:11:56;96921.94;;;29.58
19196;BMP280;9730;48.926;11.376;2023-06-04T11:14:24;96890.38;;;29.49
19196;BMP280;9730;48.926;11.376;2023-06-04T11:16:51;96889.56;;;29.29
19196;BMP280;9730;48.926;11.376;2023-06-04T11:19:19;96898.34;;;29.28
19196;BMP280;9730;48.926;11.376;2023-06-04T11:21:47;96882.91;;;29.97
19196;BMP280;9730;48.926;11.376;2023-06-04T11:24:17;96905.75;;;28.58
19196;BMP280;9730;48.926;11.376;2023-06-04T11:26:44;96889.50;;;29.03
19196;BMP280;9730;48.926;11.376;2023-06-04T11:29:19;96924.22;;;26.85
19196;BMP280;9730;48.926;11.376;2023-06-04T11:31:48;97018.31;;;24.33
19196;BMP280;9730;48.926;11.376;2023-06-04T11:34:22;97020.72;;;25.63
19196;BMP280;9730;48.926;11.376;2023-06-04T11:36:50;97011.13;;;26.80
19196;BMP280;9730;48.926;11.376;2023-06-04T11:39:21;96987.78;;;27.71
19196;BMP280;9730;48.926;11.376;2023-06-04T11:41:50;96981.59;;;28.60
19196;BMP280;9730;48.926;11.376;2023-06-04T11:44:19;96970.38;;;28.13
19196;BMP280;9730;48.926;11.376;2023-06-04T11:46:47;96975.38;;;27.94
19196;BMP280;9730;48.926;11.376;2023-06-04T11:49:19;96965.78;;;26.06
19196;BMP280;9730;48.926;11.376;2023-06-04T11:51:48;96986.50;;;25.61
19196;BMP280;9730;48.926;11.376;2023-06-04T11:54:16;96985.00;;;26.03
19196;BMP280;9730;48.926;11.376;2023-06-04T11:56:46;96987.16;;;26.14
19196;BMP280;9730;48.926;11.376;2023-06-04T11:59:16;96987.34;;;27.05
19196;BMP280;9730;48.926;11.376;2023-06-04T12:01:46;97007.84;;;27.42
19196;BMP280;9730;48.926;11.376;2023-06-04T12:04:16;96984.78;;;26.91
19196;BMP280;9730;48.926;11.376;2023-06-04T12:06:53;97012.41;;;26.41
19196;BMP280;9730;48.926;11.376;2023-06-04T12:09:24;97021.03;;;26.48
19196;BMP280;9730;48.926;11.376;2023-06-04T12:11:59;97015.41;;;26.16
19196;BMP280;9730;48.926;11.376;2023-06-04T12:14:27;96999.16;;;26.79
19196;BMP280;9730;48.926;11.376;2023-06-04T12:16:55;96982.16;;;26.70
19196;BMP280;9730;48.926;11.376;2023-06-04T12:19:23;96990.34;;;25.87
19196;BMP280;9730;48.926;11.376;2023-06-04T12:21:59;97004.31;;;25.93
19196;BMP280;9730;48.926;11.376;2023-06-04T12:24:28;96983.78;;;26.42
19196;BMP280;9730;48.926;11.376;2023-06-04T12:27:04;96973.34;;;26.07
19196;BMP280;9730;48.926;11.376;2023-06-04T12:29:33;96985.59;;;25.54
19196;BMP280;9730;48.926;11.376;2023-06-04T12:32:02;96986.16;;;26.29
19196;BMP280;9730;48.926;11.376;2023-06-04T12:34:31;97012.66;;;25.58
19196;BMP280;9730;48.926;11.376;2023-06-04T12:36:59;97006.91;;;25.93
19196;BMP280;9730;48.926;11.376;2023-06-04T12:39:26;96979.97;;;26.38
19196;BMP280;9730;48.926;11.376;2023-06-04T12:41:54;97004.38;;;26.65
19196;BMP280;9730;48.926;11.376;2023-06-04T12:44:23;96996.69;;;26.28
19196;BMP280;9730;48.926;11.376;2023-06-04T12:46:51;96971.91;;;26.05
19196;BMP280;9730;48.926;11.376;2023-06-04T12:49:19;96983.44;;;25.43
19196;BMP280;9730;48.926;11.376;2023-06-04T12:51:46;96998.06;;;25.28
19196;BMP280;9730;48.926;11.376;2023-06-04T12:54:14;97001.72;;;25.78
19196;BMP280;9730;48.926;11.376;2023-06-04T12:56:43;96989.72;;;25.63
19196;BMP280;9730;48.926;11.376;2023-06-04T12:59:10;96980.81;;;24.99
19196;BMP280;9730;48.926;11.376;2023-06-04T13:01:39;96970.78;;;25.12
19196;BMP280;9730;48.926;11.376;2023-06-04T13:04:07;97011.94;;;24.13
19196;BMP280;9730;48.926;11.376;2023-06-04T13:06:35;96999.31;;;24.34
19196;BMP280;9730;48.926;11.376;2023-06-04T13:09:03;96998.56;;;25.02
19196;BMP280;9730;48.926;11.376;2023-06-04T13:11:37;96981.16;;;24.65
19196;BMP280;9730;48.926;11.376;2023-06-04T13:14:05;96979.53;;;24.95
19196;BMP280;9730;48.926;11.376;2023-06-04T13:16:32;96975.34;;;25.02
19196;BMP280;9730;48.926;11.376;2023-06-04T13:19:02;96980.41;;;24.87
19196;BMP280;9730;48.926;11.376;2023-06-04T13:21:29;96972.63;;;24.65
19196;BMP280;9730;48.926;11.376;2023-06-04T13:23:57;96981.19;;;25.18
19196;BMP280;9730;48.926;11.376;2023-06-04T13:26:25;96988.63;;;25.58
19196;BMP280;9730;48.926;11.376;2023-06-04T13:28:53;96954.88;;;25.67
19196;BMP280;9730;48.926;11.376;2023-06-04T13:31:20;96933.72;;;25.27
19196;BMP280;9730;48.926;11.376;2023-06-04T13:33:48;96913.88;;;25.27
19196;BMP280;9730;48.926;11.376;2023-06-04T13:36:17;96943.34;;;25.33
19196;BMP280;9730;48.926;11.376;2023-06-04T13:38:45;96941.25;;;25.36
19196;BMP280;9730;48.926;11.376;2023-06-04T13:41:13;96929.41;;;25.19
19196;BMP280;9730;48.926;11.376;2023-06-04T13:43:41;96955.47;;;25.32
19196;BMP280;9730;48.926;11.376;2023-06-04T13:46:08;96967.16;;;24.90
19196;BMP280;9730;48.926;11.376;2023-06-04T13:48:36;96996.88;;;24.48
19196;BMP280;9730;48.926;11.376;2023-06-04T13:51:04;96965.88;;;24.64
19196;BMP280;9730;48.926;11.376;2023-06-04T13:53:33;96970.47;;;25.07
19196;BMP280;9730;48.926;11.376;2023-06-04T13:56:00;96962.88;;;25.50
19196;BMP280;9730;48.926;11.376;2023-06-04T13:58:28;96951.13;;;24.04
19196;BMP280;9730;48.926;11.376;2023-06-04T14:00:56;96962.88;;;24.83
19196;BMP280;9730;48.926;11.376;2023-06-04T14:03:24;96960.63;;;25.32
19196;BMP280;9730;48.926;11.376;2023-06-04T14:05:51;96962.13;;;25.64
19196;BMP280;9730;48.926;11.376;2023-06-04T14:08:19;96976.78;;;25.85
19196;BMP280;9730;48.926;11.376;2023-06-04T14:10:48;96942.22;;;25.35
19196;BMP280;9730;48.926;11.376;2023-06-04T14:13:18;96948.75;;;24.93
19196;BMP280;9730;48.926;11.376;2023-06-04T14:15:46;96965.25;;;25.37
19196;BMP280;9730;48.926;11.376;2023-06-04T14:18:13;96926.06;;;25.56
19196;BMP280;9730;48.926;11.376;2023-06-04T14:20:41;96941.16;;;25.00
19196;BMP280;9730;48.926;11.376;2023-06-04T14:23:09;96925.50;;;25.01